createdAt,value
2023-05-19T00:00:03.024Z,99.99
2023-05-19T00:01:03.147Z,99.99
2023-05-19T00:02:03.032Z,99.99
2023-05-19T00:03:03.038Z,99.99
2023-05-19T00:04:03.140Z,99.99
2023-05-19T00:05:02.918Z,99.99
2023-05-19T00:06:02.960Z,99.99
2023-05-19T00:07:02.905Z,99.99
2023-05-19T00:08:02.925Z,99.99
2023-05-19T00:09:02.893Z,99.99
2023-05-19T00:10:02.866Z,99.99
2023-05-19T00:11:03.045Z,99.99
2023-05-19T00:22:30.597Z,99.99
2023-05-19T00:23:18.404Z,99.99
2023-05-19T00:24:18.120Z,99.99
2023-05-19T00:25:18.109Z,99.99
2023-05-19T00:26:18.070Z,99.99
2023-05-19T00:27:18.023Z,99.99
2023-05-19T00:28:18.021Z,99.99
2023-05-19T00:29:17.984Z,99.99
2023-05-19T00:30:18.012Z,99.99
2023-05-19T00:31:17.967Z,99.99
2023-05-19T00:32:17.981Z,99.99
2023-05-19T00:33:17.989Z,99.99
2023-05-19T00:34:17.914Z,99.99
2023-05-19T00:35:17.931Z,99.99
2023-05-19T00:36:17.898Z,99.99
2023-05-19T00:37:17.902Z,99.99
2023-05-19T00:38:18.135Z,99.99
2023-05-19T00:39:17.856Z,99.99
2023-05-19T00:40:17.872Z,99.99
2023-05-19T00:41:17.942Z,99.99
2023-05-19T00:42:17.852Z,99.99
2023-05-19T00:43:17.818Z,99.99
2023-05-19T00:44:17.857Z,99.99
2023-05-19T00:45:17.871Z,99.99
2023-05-19T00:46:17.779Z,99.99
2023-05-19T00:47:18.039Z,99.99
2023-05-19T00:48:17.724Z,99.99
2023-05-19T00:49:17.727Z,99.99
2023-05-19T00:50:17.692Z,99.99
2023-05-19T00:51:17.706Z,99.99
2023-05-19T00:52:17.657Z,99.99
2023-05-19T00:53:17.769Z,99.99
2023-05-19T00:54:17.925Z,99.99
2023-05-19T00:55:17.614Z,99.99
2023-05-19T00:56:18.203Z,99.99
2023-05-19T00:57:17.595Z,99.99
2023-05-19T00:58:17.635Z,99.99
2023-05-19T00:59:17.548Z,99.99
2023-05-19T01:00:17.755Z,99.99
2023-05-19T01:01:17.650Z,99.99
2023-05-19T01:02:17.873Z,99.99
2023-05-19T01:03:17.602Z,99.99
2023-05-19T01:04:17.489Z,99.99
2023-05-19T01:05:17.800Z,99.99
2023-05-19T01:06:17.519Z,99.99
2023-05-19T01:07:17.469Z,99.99
2023-05-19T01:08:17.420Z,99.99
2023-05-19T01:09:17.485Z,99.99
2023-05-19T01:10:17.438Z,99.99
2023-05-19T01:11:17.460Z,99.99
2023-05-19T01:12:17.376Z,99.99
2023-05-19T01:13:17.394Z,99.99
2023-05-19T01:14:17.377Z,99.99
2023-05-19T01:15:17.354Z,99.99
2023-05-19T01:16:17.454Z,99.99
2023-05-19T01:17:17.482Z,99.99
2023-05-19T01:18:17.359Z,99.99
2023-05-19T01:19:17.472Z,99.99
2023-05-19T01:20:17.352Z,99.99
2023-05-19T01:21:17.326Z,99.99
2023-05-19T01:22:17.375Z,99.99
2023-05-19T01:23:17.281Z,99.99
2023-05-19T01:24:17.356Z,99.99
2023-05-19T01:25:17.279Z,99.99
2023-05-19T01:26:17.203Z,99.99
2023-05-19T01:27:17.371Z,99.99
2023-05-19T01:28:17.165Z,99.99
2023-05-19T01:29:17.495Z,99.99
2023-05-19T01:30:17.154Z,99.99
2023-05-19T01:31:17.109Z,99.99
2023-05-19T01:32:17.185Z,99.99
2023-05-19T01:33:17.269Z,99.99
2023-05-19T01:34:17.088Z,99.99
2023-05-19T01:35:17.115Z,99.99
2023-05-19T01:36:17.041Z,99.99
2023-05-19T01:37:17.061Z,99.99
2023-05-19T01:38:17.195Z,99.99
2023-05-19T01:39:17.014Z,99.99
2023-05-19T01:40:17.099Z,99.99
2023-05-19T01:41:16.973Z,99.99
2023-05-19T01:42:16.964Z,99.99
2023-05-19T01:43:16.955Z,99.99
2023-05-19T01:44:16.968Z,99.99
2023-05-19T01:45:16.915Z,99.99
2023-05-19T01:46:17.223Z,99.99
2023-05-19T01:47:16.984Z,99.99
2023-05-19T01:48:16.934Z,99.99
2023-05-19T01:49:16.899Z,99.99
2023-05-19T01:50:16.850Z,99.99
2023-05-19T01:51:17.047Z,99.99
2023-05-19T01:52:16.812Z,99.99
2023-05-19T01:53:16.873Z,99.99
2023-05-19T01:54:16.813Z,99.99
2023-05-19T01:55:16.816Z,99.99
2023-05-19T01:56:16.777Z,99.99
2023-05-19T01:57:16.822Z,99.99
2023-05-19T01:58:16.730Z,99.99
2023-05-19T01:59:16.733Z,99.99
2023-05-19T02:00:17.461Z,99.99
2023-05-19T02:01:16.755Z,99.99
2023-05-19T02:02:16.705Z,99.99
2023-05-19T02:03:16.830Z,99.99
2023-05-19T02:04:16.714Z,99.99
2023-05-19T02:05:16.627Z,99.99
2023-05-19T02:06:16.636Z,99.99
2023-05-19T02:07:16.632Z,99.99
2023-05-19T02:08:16.633Z,99.99
2023-05-19T02:09:16.908Z,99.99
2023-05-19T02:10:16.629Z,99.99
2023-05-19T02:11:16.615Z,99.99
2023-05-19T02:12:16.712Z,99.99
2023-05-19T02:13:16.614Z,99.99
2023-05-19T02:14:16.537Z,99.99
2023-05-19T02:15:16.559Z,99.99
2023-05-19T02:16:16.764Z,99.99
2023-05-19T02:17:16.564Z,99.99
2023-05-19T02:18:16.562Z,99.99
2023-05-19T02:19:16.661Z,99.99
2023-05-19T02:20:16.466Z,99.99
2023-05-19T02:21:16.423Z,99.99
2023-05-19T02:22:16.467Z,99.99
2023-05-19T02:23:16.533Z,99.99
2023-05-19T02:24:16.426Z,99.99
2023-05-19T02:25:16.376Z,99.99
2023-05-19T02:26:16.381Z,99.99
2023-05-19T02:27:16.392Z,99.99
2023-05-19T02:28:16.338Z,99.99
2023-05-19T02:29:16.295Z,99.99
2023-05-19T02:30:16.381Z,99.99
2023-05-19T02:31:16.450Z,99.99
2023-05-19T02:32:16.356Z,99.99
2023-05-19T02:33:16.301Z,99.99
2023-05-19T02:34:16.396Z,99.99
2023-05-19T02:35:16.220Z,99.99
2023-05-19T02:36:16.214Z,99.99
2023-05-19T02:37:16.257Z,99.99
2023-05-19T02:38:16.192Z,99.99
2023-05-19T02:39:16.307Z,99.99
2023-05-19T02:40:16.188Z,99.99
2023-05-19T02:41:16.171Z,99.99
2023-05-19T02:42:16.112Z,99.99
2023-05-19T02:43:16.153Z,99.99
2023-05-19T02:44:16.195Z,99.99
2023-05-19T02:45:16.127Z,99.99
2023-05-19T02:46:16.146Z,99.99
2023-05-19T02:47:16.380Z,99.99
2023-05-19T02:48:16.090Z,99.99
2023-05-19T02:49:16.114Z,99.99
2023-05-19T02:50:16.020Z,99.99
2023-05-19T02:51:16.034Z,99.99
2023-05-19T02:52:16.047Z,99.99
2023-05-19T02:53:15.985Z,99.99
2023-05-19T02:54:16.005Z,99.99
2023-05-19T02:55:15.971Z,99.99
2023-05-19T02:56:15.964Z,99.99
2023-05-19T02:57:16.002Z,99.99
2023-05-19T02:58:15.948Z,99.99
2023-05-19T02:59:15.925Z,99.99
2023-05-19T03:00:15.922Z,99.99
2023-05-19T03:01:15.952Z,99.99
2023-05-19T03:02:15.914Z,99.99
2023-05-19T03:03:15.964Z,99.99
2023-05-19T03:04:15.926Z,99.99
2023-05-19T03:05:15.904Z,99.99
2023-05-19T03:06:15.808Z,99.99
2023-05-19T03:07:15.823Z,99.99
2023-05-19T03:08:15.834Z,99.99
2023-05-19T03:09:15.770Z,99.99
2023-05-19T03:10:15.817Z,99.99
2023-05-19T03:11:15.807Z,99.99
2023-05-19T03:12:15.806Z,99.99
2023-05-19T03:13:15.766Z,99.99
2023-05-19T03:14:15.695Z,99.99
2023-05-19T03:15:15.702Z,99.99
2023-05-19T03:16:15.684Z,99.99
2023-05-19T03:17:15.676Z,99.99
2023-05-19T03:18:15.715Z,99.99
2023-05-19T03:19:15.665Z,99.99
2023-05-19T03:20:15.701Z,99.99
2023-05-19T03:21:15.642Z,99.99
2023-05-19T03:22:15.681Z,99.99
2023-05-19T03:23:15.553Z,99.99
2023-05-19T03:24:15.590Z,99.99
2023-05-19T03:25:15.530Z,99.99
2023-05-19T03:26:15.523Z,99.99
2023-05-19T03:27:15.552Z,99.99
2023-05-19T03:28:15.478Z,99.99
2023-05-19T03:29:15.497Z,99.99
2023-05-19T03:30:15.469Z,99.99
2023-05-19T03:31:15.452Z,99.99
2023-05-19T03:32:15.538Z,99.99
2023-05-19T03:33:15.566Z,99.99
2023-05-19T03:34:15.519Z,99.99
2023-05-19T03:35:15.491Z,99.99
2023-05-19T03:36:15.382Z,99.99
2023-05-19T03:37:15.400Z,99.99
2023-05-19T03:38:15.362Z,99.99
2023-05-19T03:39:15.486Z,99.99
2023-05-19T03:40:15.450Z,99.99
2023-05-19T03:41:15.415Z,99.99
2023-05-19T03:42:15.364Z,99.99
2023-05-19T03:43:15.371Z,99.99
2023-05-19T03:44:15.340Z,99.99
2023-05-19T03:45:15.267Z,99.99
2023-05-19T03:46:15.296Z,99.99
2023-05-19T03:47:15.315Z,99.99
2023-05-19T03:48:15.249Z,99.99
2023-05-19T03:49:15.250Z,99.99
2023-05-19T03:50:15.238Z,99.99
2023-05-19T03:51:15.324Z,99.99
2023-05-19T03:52:15.446Z,99.99
2023-05-19T03:53:15.251Z,99.99
2023-05-19T03:54:15.183Z,99.99
2023-05-19T03:55:15.160Z,99.99
2023-05-19T03:56:15.091Z,99.99
2023-05-19T03:57:15.115Z,99.99
2023-05-19T03:58:15.313Z,99.99
2023-05-19T03:59:15.073Z,99.99
2023-05-19T04:00:15.026Z,99.99
2023-05-19T04:01:15.174Z,99.99
2023-05-19T04:02:16.503Z,99.99
2023-05-19T04:03:15.114Z,99.99
2023-05-19T04:04:15.130Z,99.99
2023-05-19T04:05:14.997Z,99.99
2023-05-19T04:06:15.014Z,99.99
2023-05-19T04:07:14.950Z,99.99
2023-05-19T04:08:14.967Z,99.99
2023-05-19T04:09:15.193Z,99.99
2023-05-19T04:10:14.936Z,99.99
2023-05-19T04:11:14.898Z,99.99
2023-05-19T04:12:14.918Z,99.99
2023-05-19T04:13:14.945Z,99.99
2023-05-19T04:14:15.016Z,99.99
2023-05-19T04:15:14.853Z,99.99
2023-05-19T04:16:14.889Z,99.99
2023-05-19T04:17:14.876Z,99.99
2023-05-19T04:18:15.034Z,99.99
2023-05-19T04:19:14.823Z,99.99
2023-05-19T04:20:14.754Z,99.99
2023-05-19T04:21:14.798Z,99.99
2023-05-19T04:22:14.829Z,99.99
2023-05-19T04:23:14.807Z,99.99
2023-05-19T04:24:14.732Z,99.99
2023-05-19T04:25:14.746Z,99.99
2023-05-19T04:26:14.695Z,99.99
2023-05-19T04:27:14.911Z,99.99
2023-05-19T04:28:14.637Z,99.99
2023-05-19T04:29:14.712Z,99.99
2023-05-19T04:30:16.117Z,99.99
2023-05-19T04:31:14.723Z,99.99
2023-05-19T04:32:14.629Z,99.99
2023-05-19T04:33:14.611Z,99.99
2023-05-19T04:34:14.714Z,99.99
2023-05-19T04:35:14.572Z,99.99
2023-05-19T04:36:14.668Z,99.99
2023-05-19T04:37:14.582Z,99.99
2023-05-19T04:38:14.544Z,99.99
2023-05-19T04:39:14.533Z,99.99
2023-05-19T04:40:14.537Z,99.99
2023-05-19T04:41:14.692Z,99.99
2023-05-19T04:42:14.483Z,99.99
2023-05-19T04:43:14.456Z,99.99
2023-05-19T04:44:14.515Z,99.99
2023-05-19T04:45:14.474Z,99.99
2023-05-19T04:46:14.432Z,99.99
2023-05-19T04:47:14.448Z,99.99
2023-05-19T04:48:14.435Z,99.99
2023-05-19T04:49:14.398Z,99.99
2023-05-19T04:50:14.418Z,99.99
2023-05-19T04:51:14.561Z,99.99
2023-05-19T04:52:14.357Z,99.99
2023-05-19T04:53:14.366Z,99.99
2023-05-19T04:54:14.325Z,99.99
2023-05-19T04:55:14.531Z,99.99
2023-05-19T04:56:14.365Z,99.99
2023-05-19T04:57:14.258Z,99.99
2023-05-19T04:58:14.385Z,99.99
2023-05-19T04:59:14.538Z,99.93
2023-05-19T05:00:14.290Z,99.93
2023-05-19T05:01:14.265Z,99.51
2023-05-19T05:02:14.215Z,99.16
2023-05-19T05:03:14.350Z,98.85
2023-05-19T05:04:14.305Z,98.75
2023-05-19T05:05:14.211Z,98.29
2023-05-19T05:06:14.267Z,98.29
2023-05-19T05:07:14.312Z,97.99
2023-05-19T05:08:14.266Z,97.83
2023-05-19T05:09:14.124Z,97.73
2023-05-19T05:10:14.099Z,97.63
2023-05-19T05:11:14.166Z,96.66
2023-05-19T05:12:14.130Z,96.56
2023-05-19T05:13:14.180Z,96.45
2023-05-19T05:14:14.186Z,95.69
2023-05-19T05:15:14.098Z,95.18
2023-05-19T05:16:14.052Z,94.98
2023-05-19T05:17:14.064Z,94.87
2023-05-19T05:18:14.008Z,94.21
2023-05-19T05:19:13.987Z,93.80
2023-05-19T05:20:13.976Z,92.36
2023-05-19T05:21:13.912Z,92.47
2023-05-19T05:22:13.933Z,92.53
2023-05-19T05:23:13.893Z,92.12
2023-05-19T05:24:13.897Z,92.22
2023-05-19T05:25:13.849Z,92.38
2023-05-19T05:26:13.834Z,91.77
2023-05-19T05:27:13.840Z,90.54
2023-05-19T05:28:13.852Z,90.44
2023-05-19T05:29:13.805Z,91.05
2023-05-19T05:30:13.851Z,91.42
2023-05-19T05:31:13.830Z,91.52
2023-05-19T05:32:13.769Z,91.01
2023-05-19T05:33:13.967Z,90.09
2023-05-19T05:34:13.800Z,90.45
2023-05-19T05:35:13.736Z,89.94
2023-05-19T05:36:13.733Z,89.43
2023-05-19T05:37:15.327Z,88.51
2023-05-19T05:38:13.707Z,89.23
2023-05-19T05:39:13.638Z,89.59
2023-05-19T05:40:13.754Z,89.50
2023-05-19T05:41:13.645Z,89.39
2023-05-19T05:42:13.599Z,89.25
2023-05-19T05:43:13.614Z,88.12
2023-05-19T05:44:13.610Z,87.77
2023-05-19T05:45:13.580Z,88.08
2023-05-19T05:46:13.679Z,87.32
2023-05-19T05:47:13.538Z,86.41
2023-05-19T05:48:13.598Z,86.61
2023-05-19T05:49:13.555Z,86.57
2023-05-19T05:50:13.553Z,86.22
2023-05-19T05:51:13.559Z,85.37
2023-05-19T05:52:13.482Z,84.34
2023-05-19T05:53:13.451Z,83.80
2023-05-19T05:54:13.459Z,82.74
2023-05-19T05:55:13.443Z,81.72
2023-05-19T05:56:13.464Z,82.29
2023-05-19T05:57:13.440Z,80.46
2023-05-19T05:58:13.388Z,80.52
2023-05-19T05:59:13.411Z,78.86
2023-05-19T06:00:13.373Z,79.33
2023-05-19T06:01:13.394Z,79.50
2023-05-19T06:02:13.525Z,76.86
2023-05-19T06:03:13.625Z,76.65
2023-05-19T06:04:13.562Z,77.16
2023-05-19T06:05:13.425Z,76.01
2023-05-19T06:06:13.270Z,75.09
2023-05-19T06:07:13.417Z,73.53
2023-05-19T06:08:13.359Z,73.19
2023-05-19T06:09:13.259Z,72.69
2023-05-19T06:10:13.256Z,73.57
2023-05-19T06:11:13.362Z,71.33
2023-05-19T06:12:13.336Z,71.73
2023-05-19T06:13:13.220Z,72.08
2023-05-19T06:14:13.194Z,72.04
2023-05-19T06:15:13.181Z,72.41
2023-05-19T06:16:13.247Z,70.08
2023-05-19T06:17:13.297Z,69.27
2023-05-19T06:18:13.188Z,70.59
2023-05-19T06:19:13.234Z,71.60
2023-05-19T06:20:14.012Z,70.86
2023-05-19T06:21:13.304Z,70.56
2023-05-19T06:22:13.081Z,69.98
2023-05-19T06:23:13.025Z,69.88
2023-05-19T06:24:13.568Z,70.18
2023-05-19T06:25:13.086Z,70.08
2023-05-19T06:26:13.049Z,69.20
2023-05-19T06:27:13.185Z,70.86
2023-05-19T06:28:12.991Z,72.38
2023-05-19T06:29:13.047Z,71.06
2023-05-19T06:30:12.987Z,71.73
2023-05-19T06:31:13.096Z,71.91
2023-05-19T06:32:12.919Z,71.37
2023-05-19T06:33:13.013Z,69.34
2023-05-19T06:34:13.321Z,69.84
2023-05-19T06:35:12.879Z,70.72
2023-05-19T06:36:12.877Z,68.66
2023-05-19T06:37:12.850Z,69.68
2023-05-19T06:38:12.947Z,68.84
2023-05-19T06:39:12.831Z,68.02
2023-05-19T06:40:12.807Z,69.74
2023-05-19T06:41:12.916Z,68.67
2023-05-19T06:42:13.116Z,66.85
2023-05-19T06:43:12.783Z,67.15
2023-05-19T06:44:12.771Z,67.02
2023-05-19T06:45:12.784Z,65.70
2023-05-19T06:46:12.856Z,65.13
2023-05-19T06:47:12.919Z,65.47
2023-05-19T06:48:12.741Z,65.19
2023-05-19T06:49:12.824Z,67.11
2023-05-19T06:50:12.670Z,65.90
2023-05-19T06:51:12.799Z,66.41
2023-05-19T06:52:12.674Z,66.13
2023-05-19T06:53:12.633Z,67.25
2023-05-19T06:54:12.665Z,66.88
2023-05-19T06:55:12.580Z,68.87
2023-05-19T06:56:12.852Z,67.76
2023-05-19T06:57:12.646Z,68.16
2023-05-19T06:58:12.559Z,68.56
2023-05-19T06:59:12.602Z,68.46
2023-05-19T07:00:14.481Z,66.74
2023-05-19T07:01:12.527Z,69.17
2023-05-19T07:02:12.844Z,67.76
2023-05-19T07:03:12.720Z,66.44
2023-05-19T07:04:13.042Z,66.54
2023-05-19T07:05:12.466Z,68.87
2023-05-19T07:06:12.448Z,68.46
2023-05-19T07:07:12.543Z,68.46
2023-05-19T07:08:12.565Z,67.62
2023-05-19T07:09:12.564Z,66.91
2023-05-19T07:10:12.387Z,65.90
2023-05-19T07:11:12.830Z,67.11
2023-05-19T07:12:12.477Z,65.80
2023-05-19T07:13:12.384Z,65.53
2023-05-19T07:14:12.968Z,65.30
2023-05-19T07:15:12.320Z,64.70
2023-05-19T07:16:13.400Z,63.38
2023-05-19T07:17:12.294Z,65.07
2023-05-19T07:18:12.367Z,63.42
2023-05-19T07:19:12.342Z,64.98
2023-05-19T07:20:12.268Z,64.34
2023-05-19T07:21:12.297Z,62.65
2023-05-19T07:22:13.500Z,62.76
2023-05-19T07:23:12.389Z,60.84
2023-05-19T07:24:12.250Z,59.76
2023-05-19T07:25:12.258Z,61.88
2023-05-19T07:26:12.283Z,61.24
2023-05-19T07:27:12.150Z,59.83
2023-05-19T07:28:12.180Z,60.16
2023-05-19T07:29:12.134Z,60.87
2023-05-19T07:30:12.119Z,62.35
2023-05-19T07:31:12.110Z,60.51
2023-05-19T07:32:12.168Z,60.81
2023-05-19T07:33:12.098Z,59.56
2023-05-19T07:34:12.075Z,60.29
2023-05-19T07:35:12.055Z,62.51
2023-05-19T07:36:12.030Z,60.93
2023-05-19T07:37:12.339Z,62.14
2023-05-19T07:38:12.130Z,61.60
2023-05-19T07:39:12.157Z,60.97
2023-05-19T07:40:12.070Z,61.14
2023-05-19T07:41:12.074Z,60.05
2023-05-19T07:42:12.105Z,57.37
2023-05-19T07:43:11.998Z,56.14
2023-05-19T07:44:11.941Z,56.01
2023-05-19T07:45:12.028Z,56.19
2023-05-19T07:46:12.401Z,55.51
2023-05-19T07:47:11.894Z,55.83
2023-05-19T07:48:11.920Z,56.16
2023-05-19T07:49:11.844Z,56.57
2023-05-19T07:50:11.938Z,55.66
2023-05-19T07:51:11.909Z,56.74
2023-05-19T07:52:11.926Z,54.71
2023-05-19T07:53:12.275Z,54.17
2023-05-19T07:54:11.946Z,53.30
2023-05-19T07:55:11.848Z,54.91
2023-05-19T07:56:11.872Z,53.17
2023-05-19T07:57:11.817Z,55.55
2023-05-19T07:58:12.565Z,54.40
2023-05-19T07:59:11.709Z,52.26
2023-05-19T08:00:11.896Z,51.44
2023-05-19T08:01:11.912Z,50.81
2023-05-19T08:02:11.937Z,50.99
2023-05-19T08:03:11.836Z,51.94
2023-05-19T08:04:13.001Z,49.72
2023-05-19T08:05:11.745Z,49.97
2023-05-19T08:06:11.819Z,47.95
2023-05-19T08:07:11.639Z,47.27
2023-05-19T08:08:11.780Z,48.07
2023-05-19T08:09:11.601Z,49.05
2023-05-19T08:10:11.567Z,49.44
2023-05-19T08:11:11.717Z,46.35
2023-05-19T08:12:11.796Z,47.75
2023-05-19T08:13:11.518Z,48.55
2023-05-19T08:14:11.519Z,47.63
2023-05-19T08:15:11.556Z,45.43
2023-05-19T08:16:11.544Z,47.90
2023-05-19T08:17:11.491Z,45.18
2023-05-19T08:18:11.740Z,46.58
2023-05-19T08:19:11.747Z,45.18
2023-05-19T08:20:11.426Z,46.48
2023-05-19T08:21:13.055Z,45.89
2023-05-19T08:22:11.384Z,46.28
2023-05-19T08:23:11.444Z,45.01
2023-05-19T08:24:11.465Z,46.83
2023-05-19T08:25:11.369Z,46.47
2023-05-19T08:26:11.900Z,46.25
2023-05-19T08:27:11.813Z,44.85
2023-05-19T08:28:11.384Z,47.45
2023-05-19T08:29:11.314Z,46.55
2023-05-19T08:30:11.514Z,47.80
2023-05-19T08:31:11.276Z,44.61
2023-05-19T08:32:13.222Z,46.43
2023-05-19T08:33:11.291Z,47.92
2023-05-19T08:34:11.306Z,46.41
2023-05-19T08:35:11.194Z,46.80
2023-05-19T08:36:11.311Z,45.51
2023-05-19T08:37:11.200Z,47.06
2023-05-19T08:38:11.178Z,46.73
2023-05-19T08:39:11.268Z,45.96
2023-05-19T08:40:11.138Z,47.53
2023-05-19T08:41:11.149Z,46.69
2023-05-19T08:42:11.112Z,44.68
2023-05-19T08:43:11.118Z,42.89
2023-05-19T08:44:11.205Z,42.01
2023-05-19T08:45:11.151Z,43.03
2023-05-19T08:46:11.114Z,44.60
2023-05-19T08:47:11.127Z,42.41
2023-05-19T08:48:11.262Z,43.30
2023-05-19T08:49:11.071Z,43.29
2023-05-19T08:50:10.986Z,42.59
2023-05-19T08:51:11.136Z,42.09
2023-05-19T08:52:11.080Z,42.19
2023-05-19T08:53:18.243Z,43.16
2023-05-19T08:54:11.972Z,42.05
2023-05-19T08:55:10.959Z,41.24
2023-05-19T08:56:11.019Z,41.83
2023-05-19T08:57:11.037Z,41.52
2023-05-19T08:58:11.157Z,41.39
2023-05-19T08:59:10.947Z,40.78
2023-05-19T09:00:10.877Z,39.19
2023-05-19T09:01:10.936Z,39.00
2023-05-19T09:02:10.904Z,40.68
2023-05-19T09:03:22.727Z,39.90
2023-05-19T09:04:12.174Z,39.33
2023-05-19T09:05:10.902Z,40.12
2023-05-19T09:06:10.973Z,39.73
2023-05-19T09:07:11.012Z,42.03
2023-05-19T09:08:10.873Z,41.79
2023-05-19T09:09:10.867Z,41.02
2023-05-19T09:10:10.808Z,43.11
2023-05-19T09:11:12.675Z,41.77
2023-05-19T09:12:10.939Z,40.98
2023-05-19T09:13:10.777Z,41.25
2023-05-19T09:14:10.889Z,39.18
2023-05-19T09:15:10.825Z,40.76
2023-05-19T09:16:10.837Z,39.73
2023-05-19T09:17:10.726Z,38.65
2023-05-19T09:18:10.726Z,40.70
2023-05-19T09:19:10.647Z,39.41
2023-05-19T09:20:10.694Z,39.57
2023-05-19T09:21:10.689Z,40.09
2023-05-19T09:22:10.695Z,38.83
2023-05-19T09:23:10.848Z,40.70
2023-05-19T09:24:10.888Z,41.83
2023-05-19T09:25:10.643Z,43.05
2023-05-19T09:26:10.767Z,42.03
2023-05-19T09:27:10.554Z,42.71
2023-05-19T09:28:10.541Z,43.21
2023-05-19T09:29:11.097Z,41.61
2023-05-19T09:30:10.665Z,41.14
2023-05-19T09:31:10.648Z,43.55
2023-05-19T09:32:10.660Z,44.57
2023-05-19T09:33:11.200Z,44.05
2023-05-19T09:34:10.708Z,42.13
2023-05-19T09:35:10.735Z,42.71
2023-05-19T09:36:11.078Z,42.89
2023-05-19T09:37:11.144Z,42.97
2023-05-19T09:38:11.265Z,43.07
2023-05-19T09:39:10.732Z,42.86
2023-05-19T09:40:11.346Z,42.86
2023-05-19T09:41:10.887Z,41.20
2023-05-19T09:42:10.563Z,41.12
2023-05-19T09:43:10.879Z,43.15
2023-05-19T09:44:11.897Z,43.43
2023-05-19T09:45:10.752Z,45.18
2023-05-19T09:46:21.028Z,45.55
2023-05-19T09:47:10.570Z,43.96
2023-05-19T09:48:10.497Z,42.85
2023-05-19T09:49:10.256Z,41.53
2023-05-19T09:50:20.277Z,41.42
2023-05-19T09:51:10.409Z,41.00
2023-05-19T09:52:11.149Z,42.69
2023-05-19T09:53:10.164Z,40.82
2023-05-19T09:54:10.226Z,41.12
2023-05-19T09:55:10.153Z,41.52
2023-05-19T09:56:10.387Z,42.19
2023-05-19T09:57:10.147Z,41.38
2023-05-19T09:58:12.619Z,39.25
2023-05-19T09:59:13.758Z,40.55
2023-05-19T10:00:10.200Z,40.05
2023-05-19T10:01:10.078Z,39.34
2023-05-19T10:02:10.080Z,39.22
2023-05-19T10:03:10.901Z,38.90
2023-05-19T10:04:10.099Z,37.70
2023-05-19T10:05:10.247Z,35.82
2023-05-19T10:06:10.077Z,37.71
2023-05-19T10:07:10.152Z,36.43
2023-05-19T10:08:10.902Z,38.11
2023-05-19T10:09:10.059Z,36.24
2023-05-19T10:10:10.183Z,38.49
2023-05-19T10:11:09.975Z,37.77
2023-05-19T10:12:09.969Z,37.36
2023-05-19T10:13:11.570Z,37.62
2023-05-19T10:14:10.010Z,35.53
2023-05-19T10:15:10.092Z,34.25
2023-05-19T10:16:11.064Z,33.56
2023-05-19T10:17:09.925Z,33.54
2023-05-19T10:18:10.608Z,35.02
2023-05-19T10:19:10.884Z,33.33
2023-05-19T10:20:09.934Z,35.50
2023-05-19T10:21:10.235Z,35.58
2023-05-19T10:22:09.883Z,35.30
2023-05-19T10:23:09.985Z,34.22
2023-05-19T10:24:11.489Z,35.00
2023-05-19T10:25:10.285Z,34.44
2023-05-19T10:26:11.203Z,36.22
2023-05-19T10:27:10.616Z,33.97
2023-05-19T10:28:10.549Z,34.46
2023-05-19T10:29:10.158Z,36.71
2023-05-19T10:30:12.142Z,35.71
2023-05-19T10:31:09.927Z,34.23
2023-05-19T10:32:10.742Z,35.61
2023-05-19T10:33:10.627Z,35.14
2023-05-19T10:34:09.664Z,35.85
2023-05-19T10:35:09.664Z,35.05
2023-05-19T10:36:09.633Z,33.87
2023-05-19T10:37:10.437Z,34.66
2023-05-19T10:38:09.591Z,35.43
2023-05-19T10:39:09.954Z,36.60
2023-05-19T10:40:09.983Z,33.26
2023-05-19T10:41:09.585Z,35.12
2023-05-19T10:42:09.633Z,34.43
2023-05-19T10:43:09.577Z,35.69
2023-05-19T10:44:09.544Z,35.00
2023-05-19T10:45:09.534Z,35.20
2023-05-19T10:46:09.623Z,32.52
2023-05-19T10:47:09.563Z,32.13
2023-05-19T10:48:09.633Z,33.42
2023-05-19T10:49:09.453Z,32.64
2023-05-19T10:50:09.449Z,33.61
2023-05-19T10:51:10.406Z,34.08
2023-05-19T10:52:09.479Z,32.77
2023-05-19T10:53:09.414Z,32.97
2023-05-19T10:54:11.475Z,31.70
2023-05-19T10:55:09.534Z,33.61
2023-05-19T10:56:09.407Z,34.00
2023-05-19T10:57:10.339Z,34.27
2023-05-19T10:58:09.370Z,34.74
2023-05-19T10:59:09.363Z,32.67
2023-05-19T11:00:09.376Z,32.57
2023-05-19T11:01:09.330Z,32.77
2023-05-19T11:02:09.407Z,31.21
2023-05-19T11:03:09.371Z,32.49
2023-05-19T11:04:09.415Z,33.69
2023-05-19T11:05:10.052Z,32.29
2023-05-19T11:06:09.277Z,32.59
2023-05-19T11:07:09.253Z,33.36
2023-05-19T11:08:10.020Z,31.88
2023-05-19T11:09:09.322Z,33.65
2023-05-19T11:10:09.214Z,31.77
2023-05-19T11:11:09.176Z,31.46
2023-05-19T11:12:09.199Z,31.84
2023-05-19T11:13:09.232Z,32.62
2023-05-19T11:14:09.231Z,31.48
2023-05-19T11:15:09.173Z,32.97
2023-05-19T11:16:10.102Z,33.26
2023-05-19T11:17:09.187Z,33.18
2023-05-19T11:18:10.143Z,31.90
2023-05-19T11:19:09.231Z,29.75
2023-05-19T11:20:09.141Z,30.15
2023-05-19T11:21:09.514Z,30.52
2023-05-19T11:22:09.068Z,33.25
2023-05-19T11:23:09.169Z,32.93
2023-05-19T11:24:10.056Z,29.77
2023-05-19T11:25:09.111Z,31.85
2023-05-19T11:26:09.069Z,32.64
2023-05-19T11:27:09.586Z,29.10
2023-05-19T11:28:09.537Z,30.47
2023-05-19T11:29:09.789Z,30.97
2023-05-19T11:30:09.108Z,32.05
2023-05-19T11:31:09.011Z,28.50
2023-05-19T11:32:09.614Z,29.77
2023-05-19T11:33:08.979Z,29.97
2023-05-19T11:34:09.532Z,31.13
2023-05-19T11:35:08.922Z,28.96
2023-05-19T11:36:08.872Z,29.34
2023-05-19T11:37:08.940Z,31.30
2023-05-19T11:38:08.966Z,29.91
2023-05-19T11:39:09.001Z,28.93
2023-05-19T11:40:09.798Z,31.30
2023-05-19T11:41:08.827Z,28.12
2023-05-19T11:42:09.034Z,30.59
2023-05-19T11:43:09.734Z,30.98
2023-05-19T11:44:09.175Z,30.45
2023-05-19T11:45:09.206Z,31.88
2023-05-19T11:46:08.872Z,31.41
2023-05-19T11:47:08.889Z,31.22
2023-05-19T11:48:09.534Z,32.62
2023-05-19T11:49:09.395Z,34.05
2023-05-19T11:50:09.518Z,33.00
2023-05-19T11:51:08.778Z,33.03
2023-05-19T11:52:08.716Z,34.25
2023-05-19T11:53:09.559Z,36.66
2023-05-19T11:54:09.480Z,37.23
2023-05-19T11:55:08.796Z,37.19
2023-05-19T11:56:08.642Z,36.50
2023-05-19T11:57:08.973Z,35.92
2023-05-19T11:58:09.470Z,37.03
2023-05-19T11:59:08.597Z,37.72
2023-05-19T12:00:08.582Z,36.65
2023-05-19T12:01:08.536Z,37.86
2023-05-19T12:02:08.693Z,37.29
2023-05-19T12:03:09.204Z,38.22
2023-05-19T12:04:08.608Z,37.58
2023-05-19T12:05:08.592Z,37.99
2023-05-19T12:06:08.650Z,38.07
2023-05-19T12:07:08.565Z,36.41
2023-05-19T12:08:08.478Z,36.15
2023-05-19T12:09:08.575Z,35.21
2023-05-19T12:10:08.485Z,34.56
2023-05-19T12:11:08.634Z,34.81
2023-05-19T12:12:08.629Z,33.28
2023-05-19T12:13:08.403Z,32.65
2023-05-19T12:14:08.427Z,30.91
2023-05-19T12:15:08.559Z,32.85
2023-05-19T12:16:08.449Z,35.24
2023-05-19T12:17:08.436Z,37.87
2023-05-19T12:18:08.468Z,37.45
2023-05-19T12:19:08.433Z,34.95
2023-05-19T12:20:08.407Z,36.41
2023-05-19T12:21:08.397Z,37.10
2023-05-19T12:22:08.364Z,37.41
2023-05-19T12:23:08.299Z,35.47
2023-05-19T12:24:08.390Z,34.89
2023-05-19T12:25:08.252Z,34.86
2023-05-19T12:26:08.380Z,33.94
2023-05-19T12:27:08.234Z,33.33
2023-05-19T12:28:08.236Z,33.59
2023-05-19T12:29:08.242Z,33.41
2023-05-19T12:30:08.201Z,32.39
2023-05-19T12:31:08.687Z,31.83
2023-05-19T12:32:08.291Z,33.80
2023-05-19T12:33:08.221Z,33.49
2023-05-19T12:34:08.111Z,31.83
2023-05-19T12:35:08.116Z,32.90
2023-05-19T12:36:08.127Z,32.11
2023-05-19T12:37:08.182Z,31.70
2023-05-19T12:38:08.360Z,33.33
2023-05-19T12:39:08.092Z,32.43
2023-05-19T12:40:08.076Z,31.05
2023-05-19T12:41:08.106Z,30.27
2023-05-19T12:42:08.087Z,29.64
2023-05-19T12:43:08.061Z,32.66
2023-05-19T12:44:08.144Z,29.21
2023-05-19T12:45:08.124Z,30.73
2023-05-19T12:46:08.091Z,30.47
2023-05-19T12:47:08.068Z,30.72
2023-05-19T12:48:08.035Z,32.95
2023-05-19T12:49:08.018Z,34.48
2023-05-19T12:50:08.005Z,36.41
2023-05-19T12:51:07.932Z,36.24
2023-05-19T12:52:12.637Z,37.77
2023-05-19T12:53:08.923Z,36.77
2023-05-19T12:54:07.963Z,36.60
2023-05-19T12:55:07.931Z,38.18
2023-05-19T12:56:07.902Z,36.99
2023-05-19T12:57:07.836Z,38.36
2023-05-19T12:58:07.831Z,39.29
2023-05-19T12:59:07.774Z,38.02
2023-05-19T13:00:07.842Z,40.44
2023-05-19T13:01:07.898Z,39.86
2023-05-19T13:02:07.902Z,40.22